createdAt,value
2023-02-06T00:02:51.124Z,100475.00
2023-02-06T00:06:03.283Z,100464.06
2023-02-06T00:09:10.531Z,100472.59
2023-02-06T00:12:17.240Z,100477.75
2023-02-06T00:15:23.587Z,100482.06
2023-02-06T00:18:30.260Z,100479.06
2023-02-06T00:21:38.679Z,100477.53
2023-02-06T00:24:47.542Z,100462.25
2023-02-06T00:27:53.483Z,100485.31
2023-02-06T00:31:00.221Z,100481.34
2023-02-06T00:34:06.339Z,100477.91
2023-02-06T00:37:17.476Z,100486.75
2023-02-06T00:40:23.629Z,100492.50
2023-02-06T00:43:30.157Z,100475.47
2023-02-06T00:46:35.906Z,100474.09
2023-02-06T00:49:42.481Z,100468.31
2023-02-06T00:52:51.291Z,100470.72
2023-02-06T00:55:58.024Z,100466.97
2023-02-06T00:59:04.700Z,100463.34
2023-02-06T01:02:11.748Z,100466.38
2023-02-06T01:05:17.655Z,100461.34
2023-02-06T01:08:26.998Z,100439.91
2023-02-06T01:11:32.741Z,100449.38
2023-02-06T01:14:40.027Z,100442.38
2023-02-06T01:17:46.003Z,100440.44
2023-02-06T01:20:52.612Z,100431.75
2023-02-06T01:24:01.016Z,100443.56
2023-02-06T01:27:07.815Z,100434.72
2023-02-06T01:30:15.922Z,100436.25
2023-02-06T01:33:22.474Z,100433.59
2023-02-06T01:36:28.976Z,100434.56
2023-02-06T01:39:39.287Z,100438.63
2023-02-06T01:42:45.838Z,100434.03
2023-02-06T01:45:53.085Z,100425.22
2023-02-06T01:48:58.988Z,100431.72
2023-02-06T01:52:19.254Z,100429.78
2023-02-06T01:55:27.849Z,100426.50
2023-02-06T01:58:41.371Z,100412.75
2023-02-06T02:01:47.906Z,100407.78
2023-02-06T02:04:54.863Z,100399.22
2023-02-06T02:08:10.296Z,100390.53
2023-02-06T02:11:25.763Z,100392.81
2023-02-06T02:14:32.524Z,100387.50
2023-02-06T02:17:58.897Z,100373.34
2023-02-06T02:22:05.606Z,100385.47
2023-02-06T02:25:59.138Z,100371.69
2023-02-06T02:30:10.811Z,100383.06
2023-02-06T02:33:57.579Z,100378.09
2023-02-06T02:37:20.981Z,100372.91
2023-02-06T02:40:42.904Z,100367.56
2023-02-06T02:44:01.252Z,100380.38
2023-02-06T02:47:16.972Z,100363.47
2023-02-06T02:50:24.410Z,100384.59
2023-02-06T02:53:35.067Z,100383.06
2023-02-06T02:56:42.841Z,100390.31
2023-02-06T02:59:53.456Z,100374.88
2023-02-06T03:03:02.137Z,100372.16
2023-02-06T03:06:53.432Z,100362.66
2023-02-06T03:10:21.657Z,100372.28
2023-02-06T03:13:40.041Z,100367.22
2023-02-06T03:16:55.360Z,100379.19
2023-02-06T03:20:07.782Z,100376.06
2023-02-06T03:23:21.742Z,100383.00
2023-02-06T03:26:34.897Z,100379.75
2023-02-06T03:29:44.750Z,100378.31
2023-02-06T03:33:03.542Z,100372.91
2023-02-06T03:36:17.314Z,100371.34
2023-02-06T03:39:25.997Z,100376.19
2023-02-06T03:42:41.923Z,100371.84
2023-02-06T03:46:00.379Z,100361.94
2023-02-06T03:49:14.159Z,100369.91
2023-02-06T03:52:29.107Z,100365.81
2023-02-06T03:55:35.415Z,100369.31
2023-02-06T03:58:45.304Z,100374.44
2023-02-06T04:01:58.153Z,100368.38
2023-02-06T04:05:04.902Z,100371.63
2023-02-06T04:08:11.251Z,100376.63
2023-02-06T04:11:17.942Z,100379.97
2023-02-06T04:14:26.421Z,100381.81
2023-02-06T04:17:49.653Z,100377.81
2023-02-06T04:20:58.847Z,100376.59
2023-02-06T04:24:05.394Z,100382.81
2023-02-06T04:27:11.517Z,100382.59
2023-02-06T04:30:21.418Z,100379.22
2023-02-06T04:33:27.255Z,100371.44
2023-02-06T04:36:34.115Z,100373.84
2023-02-06T04:39:39.841Z,100383.13
2023-02-06T04:42:46.745Z,100382.22
2023-02-06T04:45:55.152Z,100374.56
2023-02-06T04:49:01.818Z,100382.22
2023-02-06T04:52:08.023Z,100381.38
2023-02-06T04:55:14.706Z,100394.13
2023-02-06T04:58:20.578Z,100382.97
2023-02-06T05:01:29.859Z,100390.66
2023-02-06T05:04:35.952Z,100388.16
2023-02-06T05:07:42.523Z,100386.59
2023-02-06T05:10:48.558Z,100380.66
2023-02-06T05:13:55.186Z,100389.06
2023-02-06T05:17:03.532Z,100390.72
2023-02-06T05:20:11.672Z,100389.91
2023-02-06T05:23:17.513Z,100384.09
2023-02-06T05:26:24.617Z,100382.31
2023-02-06T05:29:30.718Z,100384.03
2023-02-06T05:32:39.860Z,100382.81
2023-02-06T05:35:45.634Z,100380.75
2023-02-06T05:38:53.177Z,100382.03
2023-02-06T05:41:59.071Z,100390.66
2023-02-06T05:45:06.390Z,100387.13
2023-02-06T05:48:14.780Z,100377.66
2023-02-06T05:51:21.419Z,100375.09
2023-02-06T05:54:27.504Z,100378.53
2023-02-06T05:57:34.043Z,100387.13
2023-02-06T06:00:40.230Z,100375.03
2023-02-06T06:03:49.464Z,100378.97
2023-02-06T06:06:55.296Z,100379.78
2023-02-06T06:10:02.614Z,100375.97
2023-02-06T06:13:08.953Z,100382.72
2023-02-06T06:16:15.599Z,100386.22
2023-02-06T06:19:24.327Z,100387.72
2023-02-06T06:22:32.015Z,100394.47
2023-02-06T06:25:39.808Z,100398.81
2023-02-06T06:28:46.633Z,100400.19
2023-02-06T06:31:52.523Z,100398.97
2023-02-06T06:35:01.767Z,100392.66
2023-02-06T06:38:09.904Z,100404.31
2023-02-06T06:41:16.478Z,100398.06
2023-02-06T06:44:22.505Z,100403.88
2023-02-06T06:47:29.316Z,100401.97
2023-02-06T06:50:37.877Z,100397.66
2023-02-06T06:53:44.697Z,100393.16
2023-02-06T06:56:50.396Z,100395.41
2023-02-06T06:59:57.033Z,100395.25
2023-02-06T07:03:03.025Z,100391.88
2023-02-06T07:06:14.820Z,100390.97
2023-02-06T07:09:20.614Z,100391.56
2023-02-06T07:12:27.146Z,100397.28
2023-02-06T07:15:33.120Z,100400.56
2023-02-06T07:18:41.675Z,100392.78
2023-02-06T07:22:05.213Z,100395.25
2023-02-06T07:25:12.430Z,100398.56
2023-02-06T07:28:18.247Z,100385.91
2023-02-06T07:31:25.679Z,100388.41
2023-02-06T07:34:31.747Z,100398.41
2023-02-06T07:37:41.057Z,100389.63
2023-02-06T07:40:46.914Z,100393.75
2023-02-06T07:43:55.454Z,100390.16
2023-02-06T07:47:01.851Z,100395.13
2023-02-06T07:50:10.272Z,100401.63
2023-02-06T07:53:18.733Z,100394.59
2023-02-06T07:56:26.222Z,100388.41
2023-02-06T07:59:32.380Z,100387.94
2023-02-06T08:02:38.988Z,100385.78
2023-02-06T08:05:44.812Z,100373.66
2023-02-06T08:08:54.535Z,100384.47
2023-02-06T08:12:00.992Z,100384.66
2023-02-06T08:15:08.547Z,100387.44
2023-02-06T08:18:14.383Z,100378.91
2023-02-06T08:21:24.531Z,100381.31
2023-02-06T08:24:33.046Z,100376.91
2023-02-06T08:27:39.708Z,100379.47
2023-02-06T08:30:45.915Z,100375.22
2023-02-06T08:33:53.761Z,100380.72
2023-02-06T08:36:59.603Z,100381.50
2023-02-06T08:40:10.426Z,100387.56
2023-02-06T08:43:16.217Z,100395.16
2023-02-06T08:46:27.190Z,100391.34
2023-02-06T08:49:33.003Z,100385.91
2023-02-06T08:52:40.403Z,100390.31
2023-02-06T08:55:48.777Z,100385.66
2023-02-06T08:58:57.955Z,100395.44
2023-02-06T09:02:05.639Z,100391.91
2023-02-06T09:05:14.661Z,100380.47
2023-02-06T09:08:21.365Z,100393.22
2023-02-06T09:11:33.512Z,100384.91
2023-02-06T09:14:39.387Z,100383.94
2023-02-06T09:17:47.515Z,100390.19
2023-02-06T09:20:53.568Z,100396.25
2023-02-06T09:24:04.034Z,100394.41
2023-02-06T09:27:12.373Z,100400.19
2023-02-06T09:30:19.314Z,100401.38
2023-02-06T09:33:25.756Z,100399.63
2023-02-06T09:36:34.569Z,100403.13
2023-02-06T09:39:40.625Z,100405.22
2023-02-06T09:42:51.335Z,100415.41
2023-02-06T09:46:06.212Z,100408.13
2023-02-06T09:49:25.010Z,100405.72
2023-02-06T09:52:53.092Z,100402.03
2023-02-06T09:56:20.316Z,100400.16
2023-02-06T09:59:39.246Z,100400.09
2023-02-06T10:03:24.869Z,100396.91
2023-02-06T10:06:40.320Z,100395.63
2023-02-06T10:09:58.916Z,100390.66
2023-02-06T10:13:20.293Z,100387.75
2023-02-06T10:16:47.152Z,100383.53
2023-02-06T10:20:02.620Z,100389.31
2023-02-06T10:23:25.268Z,100383.19
2023-02-06T10:26:32.639Z,100372.22
2023-02-06T10:29:40.620Z,100378.28
2023-02-06T10:33:14.390Z,100374.25
2023-02-06T10:36:50.129Z,100372.00
2023-02-06T10:40:18.690Z,100369.34
2023-02-06T10:43:46.873Z,100360.31
2023-02-06T10:46:57.434Z,100364.69
2023-02-06T10:50:35.547Z,100366.44
2023-02-06T10:53:52.802Z,100354.66
2023-02-06T10:57:03.624Z,100353.72
2023-02-06T11:00:23.043Z,100338.94
2023-02-06T11:03:34.826Z,100350.00
2023-02-06T11:06:46.984Z,100347.34
2023-02-06T11:09:53.740Z,100339.03
2023-02-06T11:13:10.044Z,100350.94
2023-02-06T11:16:25.913Z,100347.78
2023-02-06T11:19:39.126Z,100343.66
2023-02-06T11:22:53.109Z,100344.56
2023-02-06T11:26:14.443Z,100349.47
2023-02-06T11:29:25.954Z,100350.50
2023-02-06T11:32:52.788Z,100354.13
2023-02-06T11:36:30.654Z,100353.50
2023-02-06T11:39:42.119Z,100351.41
2023-02-06T11:42:50.048Z,100349.19
2023-02-06T11:46:19.456Z,100343.28
2023-02-06T11:49:31.120Z,100342.28
2023-02-06T11:52:37.514Z,100344.31
2023-02-06T11:55:49.360Z,100346.13
2023-02-06T11:59:09.677Z,100341.69
2023-02-06T12:02:33.258Z,100342.06
2023-02-06T12:05:45.722Z,100348.81
2023-02-06T12:08:56.554Z,100342.09
2023-02-06T12:12:20.668Z,100347.78
2023-02-06T12:15:46.932Z,100345.16
2023-02-06T12:19:00.675Z,100330.72
2023-02-06T12:22:20.639Z,100318.94
2023-02-06T12:25:35.088Z,100322.00
2023-02-06T12:28:59.684Z,100331.28
2023-02-06T12:32:18.532Z,100332.13
2023-02-06T12:35:38.306Z,100323.28
2023-02-06T12:38:53.433Z,100332.06
2023-02-06T12:42:46.245Z,100323.41
2023-02-06T12:46:05.459Z,100324.16
2023-02-06T12:49:27.454Z,100332.59
2023-02-06T12:52:46.033Z,100332.94
2023-02-06T12:56:02.680Z,100329.13
2023-02-06T12:59:57.208Z,100327.22
2023-02-06T13:03:30.364Z,100327.44
2023-02-06T13:06:54.781Z,100318.44
2023-02-06T13:10:09.272Z,100330.06
2023-02-06T13:13:32.870Z,100329.13
2023-02-06T13:17:02.240Z,100337.50
2023-02-06T13:20:15.623Z,100344.38
2023-02-06T13:23:27.363Z,100347.81
2023-02-06T13:27:20.277Z,100337.72
2023-02-06T13:30:53.338Z,100347.63
2023-02-06T13:34:05.247Z,100350.91
2023-02-06T13:37:37.593Z,100354.94
2023-02-06T13:40:43.405Z,100354.97
2023-02-06T13:43:59.414Z,100357.81
2023-02-06T13:47:37.746Z,100356.97
2023-02-06T13:51:31.199Z,100361.81
2023-02-06T13:55:23.876Z,100356.22
2023-02-06T13:58:50.971Z,100359.41
2023-02-06T14:01:58.132Z,100355.16
2023-02-06T14:05:09.861Z,100358.63
2023-02-06T14:08:29.887Z,100359.94
2023-02-06T14:12:12.209Z,100365.28
2023-02-06T14:15:38.810Z,100370.03
2023-02-06T14:18:57.132Z,100372.69
2023-02-06T14:22:15.751Z,100372.88
2023-02-06T14:25:57.734Z,100378.53
2023-02-06T14:29:35.120Z,100375.91
2023-02-06T14:33:03.012Z,100383.81
2023-02-06T14:36:36.938Z,100381.56
2023-02-06T14:39:55.255Z,100389.81
2023-02-06T14:43:11.039Z,100390.53
2023-02-06T14:46:23.287Z,100388.47
2023-02-06T14:49:39.462Z,100388.59
2023-02-06T14:52:53.719Z,100397.63
2023-02-06T14:56:16.855Z,100399.75
2023-02-06T14:59:32.659Z,100395.66
2023-02-06T15:02:41.150Z,100394.25
2023-02-06T15:05:49.083Z,100391.66
2023-02-06T15:08:55.482Z,100382.41
2023-02-06T15:12:06.329Z,100397.34
2023-02-06T15:15:23.018Z,100390.41
2023-02-06T15:18:32.741Z,100396.47
2023-02-06T15:21:39.157Z,100394.84
2023-02-06T15:25:26.026Z,100393.50
2023-02-06T15:28:38.106Z,100393.34
2023-02-06T15:31:51.792Z,100407.09
2023-02-06T15:35:01.110Z,100407.03
2023-02-06T15:38:16.024Z,100410.63
2023-02-06T15:41:22.824Z,100413.19
2023-02-06T15:44:37.117Z,100419.19
2023-02-06T15:47:46.760Z,100423.88
2023-02-06T15:51:06.564Z,100422.63
2023-02-06T15:54:23.597Z,100433.72
2023-02-06T15:57:36.961Z,100441.78
2023-02-06T16:00:44.988Z,100436.16
2023-02-06T16:03:59.772Z,100441.50
2023-02-06T16:07:19.247Z,100443.50
2023-02-06T16:10:30.712Z,100440.19
2023-02-06T16:13:48.980Z,100437.69
2023-02-06T16:17:07.242Z,100429.06
2023-02-06T16:20:37.161Z,100429.09
2023-02-06T16:23:53.663Z,100431.69
2023-02-06T16:26:59.945Z,100434.50
2023-02-06T16:30:08.349Z,100444.94
2023-02-06T16:33:32.203Z,100445.94
2023-02-06T16:36:38.828Z,100451.25
2023-02-06T16:39:49.882Z,100448.59
2023-02-06T16:42:57.246Z,100449.81
2023-02-06T16:46:03.316Z,100455.06
2023-02-06T16:49:15.846Z,100466.31
2023-02-06T16:52:27.663Z,100455.44
2023-02-06T16:55:39.369Z,100472.16
2023-02-06T16:58:45.985Z,100467.47
2023-02-06T17:01:52.695Z,100472.16
2023-02-06T17:04:58.989Z,100476.97
2023-02-06T17:08:06.809Z,100486.91
2023-02-06T17:11:15.487Z,100491.78
2023-02-06T17:14:22.348Z,100486.25
2023-02-06T17:17:28.394Z,100492.75
2023-02-06T17:20:39.290Z,100497.72
2023-02-06T17:23:46.915Z,100487.94
2023-02-06T17:26:56.164Z,100484.34
2023-02-06T17:30:02.225Z,100473.03
2023-02-06T17:33:11.996Z,100478.91
2023-02-06T17:36:29.760Z,100481.28
2023-02-06T17:39:36.868Z,100480.31
2023-02-06T17:42:45.456Z,100480.22
2023-02-06T17:45:52.436Z,100483.59
2023-02-06T17:48:58.504Z,100485.28
2023-02-06T17:52:05.338Z,100492.25
2023-02-06T17:55:12.512Z,100484.50
2023-02-06T17:58:22.951Z,100491.34
2023-02-06T18:01:29.847Z,100498.22
2023-02-06T18:04:36.953Z,100494.00
2023-02-06T18:07:43.784Z,100495.66
2023-02-06T18:10:55.271Z,100497.91
2023-02-06T18:14:03.963Z,100502.66
2023-02-06T18:17:11.859Z,100523.56
2023-02-06T18:20:18.839Z,100514.50
2023-02-06T18:23:25.817Z,100515.63
2023-02-06T18:26:32.286Z,100521.00
2023-02-06T18:29:50.147Z,100530.22
2023-02-06T18:32:58.601Z,100528.59
2023-02-06T18:36:09.322Z,100522.66
2023-02-06T18:39:15.963Z,100507.31
2023-02-06T18:42:36.851Z,100520.06
2023-02-06T18:46:00.667Z,100517.53
2023-02-06T18:49:21.993Z,100523.66
2023-02-06T18:52:43.816Z,100528.16
2023-02-06T18:56:04.762Z,100519.78
2023-02-06T18:59:25.638Z,100521.66
2023-02-06T19:02:49.844Z,100519.34
2023-02-06T19:06:20.257Z,100520.53
2023-02-06T19:09:41.302Z,100522.66
2023-02-06T19:13:02.994Z,100513.59
2023-02-06T19:16:26.600Z,100511.66
2023-02-06T19:19:50.000Z,100516.00
2023-02-06T19:23:22.442Z,100512.81
2023-02-06T19:26:43.948Z,100507.75
2023-02-06T19:30:05.253Z,100514.72
2023-02-06T19:33:29.144Z,100517.75
2023-02-06T19:36:55.388Z,100525.59
2023-02-06T19:40:16.501Z,100528.09
2023-02-06T19:43:40.727Z,100537.06
2023-02-06T19:47:02.298Z,100538.13
2023-02-06T19:50:26.369Z,100532.06
2023-02-06T19:53:51.874Z,100535.47
2023-02-06T19:57:16.440Z,100525.19
2023-02-06T20:00:37.479Z,100531.94
2023-02-06T20:03:59.489Z,100535.34
2023-02-06T20:07:20.996Z,100539.63
2023-02-06T20:10:49.982Z,100531.19
2023-02-06T20:14:14.998Z,100526.91
2023-02-06T20:17:38.823Z,100529.56
2023-02-06T20:21:02.588Z,100537.78
2023-02-06T20:24:27.062Z,100533.97
2023-02-06T20:27:50.984Z,100542.00
2023-02-06T20:31:13.339Z,100562.72
2023-02-06T20:34:34.386Z,100573.91
2023-02-06T20:37:55.305Z,100574.88
2023-02-06T20:41:34.017Z,100570.19
2023-02-06T20:44:59.044Z,100576.34
2023-02-06T20:48:31.964Z,100585.66
2023-02-06T20:52:03.541Z,100589.81
2023-02-06T20:55:24.286Z,100583.78
2023-02-06T20:58:48.374Z,100599.34
2023-02-06T21:02:13.265Z,100600.25
2023-02-06T21:05:34.109Z,100610.41
2023-02-06T21:09:01.497Z,100617.13
2023-02-06T21:12:22.465Z,100623.94
2023-02-06T21:15:43.760Z,100606.75
2023-02-06T21:19:12.288Z,100620.31
2023-02-06T21:22:33.041Z,100580.38
2023-02-06T21:25:58.770Z,100616.75
2023-02-06T21:29:23.379Z,100614.06
2023-02-06T21:32:47.635Z,100619.13
2023-02-06T21:36:13.053Z,100624.44
2023-02-06T21:39:41.329Z,100634.81
2023-02-06T21:43:08.170Z,100633.97
2023-02-06T21:46:30.939Z,100641.06
2023-02-06T21:49:54.336Z,100649.06
2023-02-06T21:53:18.663Z,100643.19
2023-02-06T21:56:44.968Z,100649.13
2023-02-06T22:00:06.947Z,100657.56
2023-02-06T22:03:39.795Z,100672.22
2023-02-06T22:07:09.726Z,100680.03
2023-02-06T22:10:37.649Z,100683.59
2023-02-06T22:14:03.129Z,100676.75
2023-02-06T22:17:23.801Z,100692.81
2023-02-06T22:20:44.469Z,100701.19
2023-02-06T22:24:15.693Z,100691.88
2023-02-06T22:27:45.087Z,100690.97
2023-02-06T22:31:11.183Z,100691.69
2023-02-06T22:34:32.004Z,100693.25
2023-02-06T22:37:52.779Z,100698.38
2023-02-06T22:41:17.661Z,100691.59
2023-02-06T22:44:40.968Z,100687.31
2023-02-06T22:48:04.666Z,100686.47
2023-02-06T22:51:25.844Z,100680.50
2023-02-06T22:54:46.838Z,100672.13
2023-02-06T22:58:07.523Z,100681.66
2023-02-06T23:01:36.683Z,100673.19
2023-02-06T23:05:03.728Z,100668.84
2023-02-06T23:08:27.509Z,100669.66
2023-02-06T23:11:49.440Z,100671.47
2023-02-06T23:15:11.718Z,100673.13
2023-02-06T23:18:35.785Z,100662.03
2023-02-06T23:21:56.671Z,100655.19
2023-02-06T23:25:17.399Z,100648.31
2023-02-06T23:28:38.400Z,100643.16
2023-02-06T23:31:59.240Z,100640.47
2023-02-06T23:35:22.691Z,100645.59
2023-02-06T23:38:47.392Z,100636.16
2023-02-06T23:42:08.438Z,100638.81
2023-02-06T23:45:30.028Z,100631.28
2023-02-06T23:48:51.379Z,100613.63
2023-02-06T23:52:14.742Z,100629.09
2023-02-06T23:55:36.699Z,100630.81
2023-02-06T23:58:59.569Z,100642.72
